sensor_id;sensor_type;location;lat;lon;timestamp;P1;durP1;ratioP1;P2;durP2;ratioP2
52650;SDS011;38537;47.226;39.702;2022-10-31T00:02:01;7.40;;;5.00;;
52650;SDS011;38537;47.226;39.702;2022-10-31T00:04:29;4.93;;;3.80;;
52650;SDS011;38537;47.226;39.702;2022-10-31T00:06:57;6.32;;;3.85;;
52650;SDS011;38537;47.226;39.702;2022-10-31T00:09:25;4.18;;;3.28;;
52650;SDS011;38537;47.226;39.702;2022-10-31T00:11:53;6.25;;;3.00;;
52650;SDS011;38537;47.226;39.702;2022-10-31T00:14:20;6.78;;;3.60;;
52650;SDS011;38537;47.226;39.702;2022-10-31T00:16:47;4.75;;;3.15;;
52650;SDS011;38537;47.226;39.702;2022-10-31T00:19:15;4.85;;;3.10;;
52650;SDS011;38537;47.226;39.702;2022-10-31T00:21:43;8.63;;;3.15;;
52650;SDS011;38537;47.226;39.702;2022-10-31T00:24:11;5.57;;;3.20;;
52650;SDS011;38537;47.226;39.702;2022-10-31T00:26:40;4.85;;;3.30;;
52650;SDS011;38537;47.226;39.702;2022-10-31T00:29:09;6.75;;;3.22;;
52650;SDS011;38537;47.226;39.702;2022-10-31T00:31:37;4.15;;;3.08;;
52650;SDS011;38537;47.226;39.702;2022-10-31T00:34:04;4.70;;;3.20;;
52650;SDS011;38537;47.226;39.702;2022-10-31T00:36:33;6.35;;;3.67;;
52650;SDS011;38537;47.226;39.702;2022-10-31T00:39:01;5.65;;;3.97;;
52650;SDS011;38537;47.226;39.702;2022-10-31T00:41:29;6.53;;;4.78;;
52650;SDS011;38537;47.226;39.702;2022-10-31T00:43:56;6.80;;;5.25;;
52650;SDS011;38537;47.226;39.702;2022-10-31T00:46:25;8.32;;;5.95;;
52650;SDS011;38537;47.226;39.702;2022-10-31T00:48:53;7.75;;;5.70;;
52650;SDS011;38537;47.226;39.702;2022-10-31T00:51:20;6.97;;;5.85;;
52650;SDS011;38537;47.226;39.702;2022-10-31T00:53:48;6.85;;;5.80;;
52650;SDS011;38537;47.226;39.702;2022-10-31T00:56:15;9.05;;;6.25;;
52650;SDS011;38537;47.226;39.702;2022-10-31T00:58:44;10.95;;;6.75;;
52650;SDS011;38537;47.226;39.702;2022-10-31T01:01:11;7.75;;;6.25;;
52650;SDS011;38537;47.226;39.702;2022-10-31T01:03:39;9.75;;;7.03;;
52650;SDS011;38537;47.226;39.702;2022-10-31T01:06:11;7.47;;;6.68;;
52650;SDS011;38537;47.226;39.702;2022-10-31T01:08:40;7.43;;;6.65;;
52650;SDS011;38537;47.226;39.702;2022-10-31T01:11:15;8.20;;;7.03;;
52650;SDS011;38537;47.226;39.702;2022-10-31T01:13:46;10.00;;;7.60;;
52650;SDS011;38537;47.226;39.702;2022-10-31T01:16:15;9.80;;;7.15;;
52650;SDS011;38537;47.226;39.702;2022-10-31T01:18:44;8.07;;;6.72;;
52650;SDS011;38537;47.226;39.702;2022-10-31T01:21:13;11.48;;;7.50;;
52650;SDS011;38537;47.226;39.702;2022-10-31T01:23:48;10.20;;;7.57;;
52650;SDS011;38537;47.226;39.702;2022-10-31T01:26:18;11.85;;;8.15;;
52650;SDS011;38537;47.226;39.702;2022-10-31T01:28:49;9.23;;;7.43;;
52650;SDS011;38537;47.226;39.702;2022-10-31T01:31:22;11.15;;;8.02;;
52650;SDS011;38537;47.226;39.702;2022-10-31T01:33:52;12.30;;;9.48;;
52650;SDS011;38537;47.226;39.702;2022-10-31T01:36:26;10.63;;;8.45;;
52650;SDS011;38537;47.226;39.702;2022-10-31T01:39:03;11.32;;;7.90;;
52650;SDS011;38537;47.226;39.702;2022-10-31T01:46:50;11.27;;;7.43;;
52650;SDS011;38537;47.226;39.702;2022-10-31T01:52:29;10.82;;;8.10;;
52650;SDS011;38537;47.226;39.702;2022-10-31T01:55:09;9.27;;;7.30;;
52650;SDS011;38537;47.226;39.702;2022-10-31T01:57:38;10.45;;;7.35;;
52650;SDS011;38537;47.226;39.702;2022-10-31T02:00:10;11.35;;;8.13;;
52650;SDS011;38537;47.226;39.702;2022-10-31T02:02:39;11.23;;;7.10;;
52650;SDS011;38537;47.226;39.702;2022-10-31T02:05:08;13.80;;;7.90;;
52650;SDS011;38537;47.226;39.702;2022-10-31T02:07:42;11.00;;;7.60;;
52650;SDS011;38537;47.226;39.702;2022-10-31T02:10:15;9.95;;;7.28;;
52650;SDS011;38537;47.226;39.702;2022-10-31T02:12:43;11.13;;;7.60;;
52650;SDS011;38537;47.226;39.702;2022-10-31T02:15:15;10.15;;;7.25;;
52650;SDS011;38537;47.226;39.702;2022-10-31T02:17:42;8.90;;;7.28;;
52650;SDS011;38537;47.226;39.702;2022-10-31T02:20:12;9.80;;;7.35;;
52650;SDS011;38537;47.226;39.702;2022-10-31T02:22:48;9.88;;;7.85;;
52650;SDS011;38537;47.226;39.702;2022-10-31T02:28:28;11.13;;;7.38;;
52650;SDS011;38537;47.226;39.702;2022-10-31T02:31:05;9.48;;;7.53;;
52650;SDS011;38537;47.226;39.702;2022-10-31T02:42:14;11.15;;;7.03;;
52650;SDS011;38537;47.226;39.702;2022-10-31T02:44:53;9.18;;;7.00;;
52650;SDS011;38537;47.226;39.702;2022-10-31T02:47:28;11.35;;;8.40;;
52650;SDS011;38537;47.226;39.702;2022-10-31T02:50:00;11.15;;;8.48;;
52650;SDS011;38537;47.226;39.702;2022-10-31T02:52:32;13.45;;;8.38;;
52650;SDS011;38537;47.226;39.702;2022-10-31T02:55:39;11.48;;;8.77;;
52650;SDS011;38537;47.226;39.702;2022-10-31T02:58:08;15.68;;;10.13;;
52650;SDS011;38537;47.226;39.702;2022-10-31T03:00:43;14.32;;;9.77;;
52650;SDS011;38537;47.226;39.702;2022-10-31T03:03:25;15.50;;;10.20;;
52650;SDS011;38537;47.226;39.702;2022-10-31T03:08:50;15.02;;;9.98;;
52650;SDS011;38537;47.226;39.702;2022-10-31T03:11:46;16.73;;;11.40;;
52650;SDS011;38537;47.226;39.702;2022-10-31T03:14:26;15.60;;;10.27;;
52650;SDS011;38537;47.226;39.702;2022-10-31T03:17:07;15.73;;;10.73;;
52650;SDS011;38537;47.226;39.702;2022-10-31T03:19:42;14.70;;;11.05;;
52650;SDS011;38537;47.226;39.702;2022-10-31T03:22:17;16.25;;;10.70;;
52650;SDS011;38537;47.226;39.702;2022-10-31T03:24:48;15.65;;;10.07;;
52650;SDS011;38537;47.226;39.702;2022-10-31T03:27:22;15.20;;;10.38;;
52650;SDS011;38537;47.226;39.702;2022-10-31T03:29:53;14.05;;;10.15;;
52650;SDS011;38537;47.226;39.702;2022-10-31T03:32:26;15.77;;;9.77;;
52650;SDS011;38537;47.226;39.702;2022-10-31T03:34:58;12.77;;;8.85;;
52650;SDS011;38537;47.226;39.702;2022-10-31T03:37:30;15.77;;;9.05;;
52650;SDS011;38537;47.226;39.702;2022-10-31T03:40:01;13.80;;;9.07;;
52650;SDS011;38537;47.226;39.702;2022-10-31T03:42:33;13.35;;;9.27;;
52650;SDS011;38537;47.226;39.702;2022-10-31T03:47:52;10.93;;;7.88;;
52650;SDS011;38537;47.226;39.702;2022-10-31T03:50:21;12.57;;;8.75;;
52650;SDS011;38537;47.226;39.702;2022-10-31T03:52:59;13.50;;;9.13;;
52650;SDS011;38537;47.226;39.702;2022-10-31T03:55:37;11.70;;;8.18;;
52650;SDS011;38537;47.226;39.702;2022-10-31T03:58:27;12.32;;;8.80;;
52650;SDS011;38537;47.226;39.702;2022-10-31T04:01:00;11.07;;;8.10;;
52650;SDS011;38537;47.226;39.702;2022-10-31T04:03:30;12.07;;;8.45;;
52650;SDS011;38537;47.226;39.702;2022-10-31T04:06:03;14.25;;;8.50;;
52650;SDS011;38537;47.226;39.702;2022-10-31T04:08:43;12.18;;;8.50;;
52650;SDS011;38537;47.226;39.702;2022-10-31T04:11:17;12.23;;;7.95;;
52650;SDS011;38537;47.226;39.702;2022-10-31T04:14:03;12.40;;;7.97;;
52650;SDS011;38537;47.226;39.702;2022-10-31T04:16:35;13.20;;;8.20;;
52650;SDS011;38537;47.226;39.702;2022-10-31T04:19:02;12.38;;;8.65;;
52650;SDS011;38537;47.226;39.702;2022-10-31T04:21:30;13.07;;;8.55;;
52650;SDS011;38537;47.226;39.702;2022-10-31T04:24:01;15.40;;;8.93;;
52650;SDS011;38537;47.226;39.702;2022-10-31T04:26:30;10.88;;;7.57;;
52650;SDS011;38537;47.226;39.702;2022-10-31T04:28:58;11.15;;;8.05;;
52650;SDS011;38537;47.226;39.702;2022-10-31T04:31:29;11.13;;;7.95;;
52650;SDS011;38537;47.226;39.702;2022-10-31T04:33:57;11.23;;;7.80;;
52650;SDS011;38537;47.226;39.702;2022-10-31T04:36:24;11.55;;;7.50;;
52650;SDS011;38537;47.226;39.702;2022-10-31T04:38:52;10.52;;;6.93;;
52650;SDS011;38537;47.226;39.702;2022-10-31T04:41:40;9.43;;;6.20;;
52650;SDS011;38537;47.226;39.702;2022-10-31T04:44:12;8.00;;;6.30;;
52650;SDS011;38537;47.226;39.702;2022-10-31T04:46:41;11.85;;;6.50;;
52650;SDS011;38537;47.226;39.702;2022-10-31T04:49:10;11.63;;;6.28;;
52650;SDS011;38537;47.226;39.702;2022-10-31T04:51:38;10.95;;;6.45;;
52650;SDS011;38537;47.226;39.702;2022-10-31T04:54:08;11.35;;;6.57;;
52650;SDS011;38537;47.226;39.702;2022-10-31T04:56:54;8.55;;;5.75;;
52650;SDS011;38537;47.226;39.702;2022-10-31T04:59:22;6.38;;;5.18;;
52650;SDS011;38537;47.226;39.702;2022-10-31T05:01:52;9.55;;;6.15;;
52650;SDS011;38537;47.226;39.702;2022-10-31T05:06:54;5.72;;;4.55;;
52650;SDS011;38537;47.226;39.702;2022-10-31T05:09:22;7.53;;;5.18;;
52650;SDS011;38537;47.226;39.702;2022-10-31T05:11:52;8.50;;;5.35;;
52650;SDS011;38537;47.226;39.702;2022-10-31T05:14:47;8.60;;;5.25;;
52650;SDS011;38537;47.226;39.702;2022-10-31T05:17:35;10.75;;;5.07;;
52650;SDS011;38537;47.226;39.702;2022-10-31T05:20:18;8.65;;;4.97;;
52650;SDS011;38537;47.226;39.702;2022-10-31T05:23:13;7.35;;;4.90;;
52650;SDS011;38537;47.226;39.702;2022-10-31T05:25:41;15.45;;;4.82;;
52650;SDS011;38537;47.226;39.702;2022-10-31T05:28:08;6.90;;;4.70;;
52650;SDS011;38537;47.226;39.702;2022-10-31T05:30:37;7.60;;;4.38;;
52650;SDS011;38537;47.226;39.702;2022-10-31T05:33:08;6.13;;;4.30;;
52650;SDS011;38537;47.226;39.702;2022-10-31T05:35:57;5.32;;;4.07;;
52650;SDS011;38537;47.226;39.702;2022-10-31T05:38:43;6.63;;;4.00;;
52650;SDS011;38537;47.226;39.702;2022-10-31T05:41:22;8.48;;;4.30;;
52650;SDS011;38537;47.226;39.702;2022-10-31T05:43:51;7.57;;;4.35;;
52650;SDS011;38537;47.226;39.702;2022-10-31T05:46:23;9.23;;;4.10;;
52650;SDS011;38537;47.226;39.702;2022-10-31T05:49:09;9.27;;;4.00;;
52650;SDS011;38537;47.226;39.702;2022-10-31T05:51:55;6.10;;;3.60;;
52650;SDS011;38537;47.226;39.702;2022-10-31T05:54:30;7.03;;;4.07;;
52650;SDS011;38537;47.226;39.702;2022-10-31T05:56:59;6.40;;;3.75;;
52650;SDS011;38537;47.226;39.702;2022-10-31T05:59:26;9.13;;;4.13;;
52650;SDS011;38537;47.226;39.702;2022-10-31T06:01:54;6.18;;;3.60;;
52650;SDS011;38537;47.226;39.702;2022-10-31T06:04:42;7.50;;;3.70;;
52650;SDS011;38537;47.226;39.702;2022-10-31T06:07:09;6.53;;;4.05;;
52650;SDS011;38537;47.226;39.702;2022-10-31T06:09:37;8.30;;;4.25;;
52650;SDS011;38537;47.226;39.702;2022-10-31T06:12:06;8.02;;;4.18;;
52650;SDS011;38537;47.226;39.702;2022-10-31T06:15:06;7.70;;;4.35;;
52650;SDS011;38537;47.226;39.702;2022-10-31T06:17:35;7.53;;;4.72;;
52650;SDS011;38537;47.226;39.702;2022-10-31T06:20:24;8.45;;;5.00;;
52650;SDS011;38537;47.226;39.702;2022-10-31T06:23:01;7.90;;;4.88;;
52650;SDS011;38537;47.226;39.702;2022-10-31T06:25:32;8.38;;;4.55;;
52650;SDS011;38537;47.226;39.702;2022-10-31T06:28:03;7.45;;;4.60;;
52650;SDS011;38537;47.226;39.702;2022-10-31T06:30:43;7.03;;;4.50;;
52650;SDS011;38537;47.226;39.702;2022-10-31T06:33:10;6.78;;;4.55;;
52650;SDS011;38537;47.226;39.702;2022-10-31T06:35:46;10.85;;;4.60;;
52650;SDS011;38537;47.226;39.702;2022-10-31T06:38:15;7.78;;;4.50;;
52650;SDS011;38537;47.226;39.702;2022-10-31T06:40:47;7.25;;;4.40;;
52650;SDS011;38537;47.226;39.702;2022-10-31T06:43:20;8.00;;;4.37;;
52650;SDS011;38537;47.226;39.702;2022-10-31T06:45:57;9.15;;;4.45;;
52650;SDS011;38537;47.226;39.702;2022-10-31T06:48:46;9.07;;;4.57;;
52650;SDS011;38537;47.226;39.702;2022-10-31T06:51:19;10.88;;;4.72;;
52650;SDS011;38537;47.226;39.702;2022-10-31T06:53:49;8.55;;;4.80;;
52650;SDS011;38537;47.226;39.702;2022-10-31T06:56:17;9.57;;;4.75;;
52650;SDS011;38537;47.226;39.702;2022-10-31T06:58:48;6.82;;;4.25;;
52650;SDS011;38537;47.226;39.702;2022-10-31T07:01:21;9.00;;;4.30;;
52650;SDS011;38537;47.226;39.702;2022-10-31T07:03:50;7.38;;;4.20;;
52650;SDS011;38537;47.226;39.702;2022-10-31T07:06:19;9.65;;;4.60;;
52650;SDS011;38537;47.226;39.702;2022-10-31T07:08:48;9.10;;;4.25;;
52650;SDS011;38537;47.226;39.702;2022-10-31T07:11:17;9.93;;;4.40;;
52650;SDS011;38537;47.226;39.702;2022-10-31T07:13:44;9.43;;;4.60;;
52650;SDS011;38537;47.226;39.702;2022-10-31T07:16:15;8.55;;;4.32;;
52650;SDS011;38537;47.226;39.702;2022-10-31T07:18:43;7.50;;;4.13;;
52650;SDS011;38537;47.226;39.702;2022-10-31T07:21:12;9.40;;;4.43;;
52650;SDS011;38537;47.226;39.702;2022-10-31T07:23:40;7.65;;;4.50;;
52650;SDS011;38537;47.226;39.702;2022-10-31T07:26:33;7.97;;;4.57;;
52650;SDS011;38537;47.226;39.702;2022-10-31T07:29:01;8.35;;;4.70;;
52650;SDS011;38537;47.226;39.702;2022-10-31T07:31:28;10.65;;;5.30;;
52650;SDS011;38537;47.226;39.702;2022-10-31T07:34:02;8.15;;;4.72;;
52650;SDS011;38537;47.226;39.702;2022-10-31T07:36:44;9.07;;;5.72;;
52650;SDS011;38537;47.226;39.702;2022-10-31T07:39:12;8.20;;;5.40;;
52650;SDS011;38537;47.226;39.702;2022-10-31T07:41:40;10.50;;;5.55;;
52650;SDS011;38537;47.226;39.702;2022-10-31T07:44:09;8.48;;;5.03;;
52650;SDS011;38537;47.226;39.702;2022-10-31T07:47:02;9.68;;;4.80;;
52650;SDS011;38537;47.226;39.702;2022-10-31T07:50:02;8.35;;;5.20;;
52650;SDS011;38537;47.226;39.702;2022-10-31T07:53:06;8.35;;;5.15;;
52650;SDS011;38537;47.226;39.702;2022-10-31T07:55:59;9.00;;;5.40;;
52650;SDS011;38537;47.226;39.702;2022-10-31T07:58:29;11.63;;;5.20;;
52650;SDS011;38537;47.226;39.702;2022-10-31T08:00:58;9.82;;;4.97;;
52650;SDS011;38537;47.226;39.702;2022-10-31T08:03:34;9.05;;;5.00;;
52650;SDS011;38537;47.226;39.702;2022-10-31T08:06:30;9.02;;;4.95;;
52650;SDS011;38537;47.226;39.702;2022-10-31T08:09:18;10.23;;;5.18;;
52650;SDS011;38537;47.226;39.702;2022-10-31T08:11:46;8.07;;;5.22;;
52650;SDS011;38537;47.226;39.702;2022-10-31T08:14:15;11.95;;;5.80;;
52650;SDS011;38537;47.226;39.702;2022-10-31T08:16:42;10.43;;;6.30;;
52650;SDS011;38537;47.226;39.702;2022-10-31T08:19:11;9.02;;;6.10;;
52650;SDS011;38537;47.226;39.702;2022-10-31T08:21:39;10.38;;;5.95;;
52650;SDS011;38537;47.226;39.702;2022-10-31T08:24:08;9.98;;;6.45;;
52650;SDS011;38537;47.226;39.702;2022-10-31T08:26:39;12.23;;;5.80;;
52650;SDS011;38537;47.226;39.702;2022-10-31T08:29:08;10.25;;;6.40;;
52650;SDS011;38537;47.226;39.702;2022-10-31T08:31:37;10.18;;;6.18;;
52650;SDS011;38537;47.226;39.702;2022-10-31T08:34:27;8.57;;;5.53;;
52650;SDS011;38537;47.226;39.702;2022-10-31T08:37:13;9.73;;;5.72;;
52650;SDS011;38537;47.226;39.702;2022-10-31T08:39:51;9.27;;;6.00;;
52650;SDS011;38537;47.226;39.702;2022-10-31T08:42:20;11.05;;;6.38;;
52650;SDS011;38537;47.226;39.702;2022-10-31T08:44:47;10.95;;;5.97;;
52650;SDS011;38537;47.226;39.702;2022-10-31T08:47:17;10.25;;;6.30;;
52650;SDS011;38537;47.226;39.702;2022-10-31T08:49:44;9.77;;;5.90;;
52650;SDS011;38537;47.226;39.702;2022-10-31T08:52:12;9.77;;;5.63;;
52650;SDS011;38537;47.226;39.702;2022-10-31T08:54:43;10.10;;;5.78;;
52650;SDS011;38537;47.226;39.702;2022-10-31T08:57:29;10.88;;;5.82;;
52650;SDS011;38537;47.226;39.702;2022-10-31T08:59:58;11.00;;;5.60;;
52650;SDS011;38537;47.226;39.702;2022-10-31T09:02:40;8.52;;;5.70;;
52650;SDS011;38537;47.226;39.702;2022-10-31T09:05:08;12.27;;;5.70;;
52650;SDS011;38537;47.226;39.702;2022-10-31T09:07:36;11.50;;;6.18;;
52650;SDS011;38537;47.226;39.702;2022-10-31T09:10:03;8.27;;;6.07;;
52650;SDS011;38537;47.226;39.702;2022-10-31T09:12:34;9.85;;;5.93;;
52650;SDS011;38537;47.226;39.702;2022-10-31T09:15:31;11.70;;;6.07;;
52650;SDS011;38537;47.226;39.702;2022-10-31T09:18:20;10.38;;;5.70;;
52650;SDS011;38537;47.226;39.702;2022-10-31T09:20:57;9.43;;;5.25;;
52650;SDS011;38537;47.226;39.702;2022-10-31T09:23:29;8.80;;;5.50;;
52650;SDS011;38537;47.226;39.702;2022-10-31T09:25:59;6.75;;;2.38;;
52650;SDS011;38537;47.226;39.702;2022-10-31T09:28:34;2.60;;;1.42;;
52650;SDS011;38537;47.226;39.702;2022-10-31T09:31:07;1.35;;;0.90;;
52650;SDS011;38537;47.226;39.702;2022-10-31T09:33:49;2.58;;;1.30;;
52650;SDS011;38537;47.226;39.702;2022-10-31T09:36:36;2.85;;;1.33;;
52650;SDS011;38537;47.226;39.702;2022-10-31T09:39:16;2.45;;;1.15;;
52650;SDS011;38537;47.226;39.702;2022-10-31T09:44:37;5.60;;;1.50;;
52650;SDS011;38537;47.226;39.702;2022-10-31T09:53:50;3.88;;;1.70;;
52650;SDS011;38537;47.226;39.702;2022-10-31T09:56:26;2.47;;;1.50;;
52650;SDS011;38537;47.226;39.702;2022-10-31T09:58:59;2.17;;;1.30;;
52650;SDS011;38537;47.226;39.702;2022-10-31T10:16:14;0.82;;;0.80;;
52650;SDS011;38537;47.226;39.702;2022-10-31T10:19:13;1.23;;;0.98;;
52650;SDS011;38537;47.226;39.702;2022-10-31T10:30:21;1.35;;;1.10;;
52650;SDS011;38537;47.226;39.702;2022-10-31T10:32:52;1.20;;;1.10;;
52650;SDS011;38537;47.226;39.702;2022-10-31T10:35:29;2.28;;;1.30;;
52650;SDS011;38537;47.226;39.702;2022-10-31T10:38:19;1.77;;;1.40;;
52650;SDS011;38537;47.226;39.702;2022-10-31T10:41:22;3.45;;;1.80;;
52650;SDS011;38537;47.226;39.702;2022-10-31T10:46:41;4.63;;;1.98;;
52650;SDS011;38537;47.226;39.702;2022-10-31T10:50:13;2.80;;;1.90;;
52650;SDS011;38537;47.226;39.702;2022-10-31T10:55:35;1.58;;;1.30;;
52650;SDS011;38537;47.226;39.702;2022-10-31T10:58:10;3.22;;;1.40;;
52650;SDS011;38537;47.226;39.702;2022-10-31T11:00:45;1.20;;;1.10;;
52650;SDS011;38537;47.226;39.702;2022-10-31T11:03:14;2.38;;;0.98;;
52650;SDS011;38537;47.226;39.702;2022-10-31T11:05:53;1.95;;;1.17;;
52650;SDS011;38537;47.226;39.702;2022-10-31T11:08:29;4.10;;;1.23;;
52650;SDS011;38537;47.226;39.702;2022-10-31T11:11:05;2.45;;;1.15;;
52650;SDS011;38537;47.226;39.702;2022-10-31T11:13:46;1.60;;;1.20;;
52650;SDS011;38537;47.226;39.702;2022-10-31T11:19:24;2.67;;;1.20;;
52650;SDS011;38537;47.226;39.702;2022-10-31T11:21:54;1.42;;;1.15;;
52650;SDS011;38537;47.226;39.702;2022-10-31T11:24:36;2.25;;;1.30;;
52650;SDS011;38537;47.226;39.702;2022-10-31T11:27:25;3.35;;;1.77;;
52650;SDS011;38537;47.226;39.702;2022-10-31T11:30:03;2.20;;;1.70;;
52650;SDS011;38537;47.226;39.702;2022-10-31T11:32:32;4.78;;;2.00;;
52650;SDS011;38537;47.226;39.702;2022-10-31T11:35:02;2.55;;;1.85;;
52650;SDS011;38537;47.226;39.702;2022-10-31T11:37:41;4.00;;;2.30;;
52650;SDS011;38537;47.226;39.702;2022-10-31T11:40:15;2.95;;;1.75;;
52650;SDS011;38537;47.226;39.702;2022-10-31T11:42:47;3.13;;;2.00;;
52650;SDS011;38537;47.226;39.702;2022-10-31T11:45:18;4.35;;;2.20;;
52650;SDS011;38537;47.226;39.702;2022-10-31T11:47:57;5.38;;;3.00;;
52650;SDS011;38537;47.226;39.702;2022-10-31T11:50:39;4.10;;;2.17;;
52650;SDS011;38537;47.226;39.702;2022-10-31T11:53:16;5.40;;;3.10;;
52650;SDS011;38537;47.226;39.702;2022-10-31T11:55:46;4.35;;;3.20;;
52650;SDS011;38537;47.226;39.702;2022-10-31T11:58:27;4.45;;;2.97;;
52650;SDS011;38537;47.226;39.702;2022-10-31T12:00:55;4.65;;;3.10;;
52650;SDS011;38537;47.226;39.702;2022-10-31T12:03:32;3.10;;;1.85;;
52650;SDS011;38537;47.226;39.702;2022-10-31T12:06:27;2.10;;;1.60;;
52650;SDS011;38537;47.226;39.702;2022-10-31T12:09:00;5.20;;;1.83;;
52650;SDS011;38537;47.226;39.702;2022-10-31T12:17:06;1.83;;;1.63;;
52650;SDS011;38537;47.226;39.702;2022-10-31T12:25:16;3.10;;;1.50;;
52650;SDS011;38537;47.226;39.702;2022-10-31T12:27:51;3.47;;;2.10;;
52650;SDS011;38537;47.226;39.702;2022-10-31T12:33:56;6.38;;;1.88;;
52650;SDS011;38537;47.226;39.702;2022-10-31T12:36:48;1.27;;;0.90;;
52650;SDS011;38537;47.226;39.702;2022-10-31T12:39:35;2.47;;;1.30;;
52650;SDS011;38537;47.226;39.702;2022-10-31T12:42:19;2.85;;;1.42;;
52650;SDS011;38537;47.226;39.702;2022-10-31T12:45:35;2.15;;;1.15;;
52650;SDS011;38537;47.226;39.702;2022-10-31T12:54:01;1.33;;;0.80;;
52650;SDS011;38537;47.226;39.702;2022-10-31T13:00:04;1.30;;;1.02;;
52650;SDS011;38537;47.226;39.702;2022-10-31T13:02:49;2.35;;;1.30;;
52650;SDS011;38537;47.226;39.702;2022-10-31T13:05:40;2.00;;;1.17;;
52650;SDS011;38537;47.226;39.702;2022-10-31T13:08:18;2.38;;;1.13;;
52650;SDS011;38537;47.226;39.702;2022-10-31T13:10:54;1.33;;;1.10;;
52650;SDS011;38537;47.226;39.702;2022-10-31T13:13:34;2.08;;;1.20;;
52650;SDS011;38537;47.226;39.702;2022-10-31T13:18:51;2.60;;;1.10;;
52650;SDS011;38537;47.226;39.702;2022-10-31T13:21:21;1.58;;;1.17;;
52650;SDS011;38537;47.226;39.702;2022-10-31T13:23:57;2.38;;;1.30;;
52650;SDS011;38537;47.226;39.702;2022-10-31T13:26:33;1.35;;;1.20;;
52650;SDS011;38537;47.226;39.702;2022-10-31T13:32:03;1.33;;;1.00;;
52650;SDS011;38537;47.226;39.702;2022-10-31T13:34:49;0.68;;;0.65;;
52650;SDS011;38537;47.226;39.702;2022-10-31T13:37:26;0.82;;;0.70;;
52650;SDS011;38537;47.226;39.702;2022-10-31T13:43:11;1.02;;;0.70;;
52650;SDS011;38537;47.226;39.702;2022-10-31T13:45:51;2.42;;;0.50;;
52650;SDS011;38537;47.226;39.702;2022-10-31T13:50:56;1.77;;;0.70;;
52650;SDS011;38537;47.226;39.702;2022-10-31T13:53:37;1.05;;;0.60;;
52650;SDS011;38537;47.226;39.702;2022-10-31T14:01:44;0.85;;;0.80;;
52650;SDS011;38537;47.226;39.702;2022-10-31T14:04:26;1.13;;;0.98;;
52650;SDS011;38537;47.226;39.702;2022-10-31T14:07:21;1.02;;;0.77;;
52650;SDS011;38537;47.226;39.702;2022-10-31T14:12:29;1.98;;;1.00;;
52650;SDS011;38537;47.226;39.702;2022-10-31T14:15:03;1.98;;;0.88;;
52650;SDS011;38537;47.226;39.702;2022-10-31T14:17:51;3.20;;;1.10;;
52650;SDS011;38537;47.226;39.702;2022-10-31T14:20:34;3.13;;;1.15;;
52650;SDS011;38537;47.226;39.702;2022-10-31T14:23:12;2.90;;;1.23;;
52650;SDS011;38537;47.226;39.702;2022-10-31T14:28:35;5.72;;;1.15;;
52650;SDS011;38537;47.226;39.702;2022-10-31T14:31:21;2.15;;;0.93;;
52650;SDS011;38537;47.226;39.702;2022-10-31T14:36:41;2.13;;;1.00;;
52650;SDS011;38537;47.226;39.702;2022-10-31T14:45:24;2.00;;;0.98;;
52650;SDS011;38537;47.226;39.702;2022-10-31T14:48:03;1.00;;;0.90;;
52650;SDS011;38537;47.226;39.702;2022-10-31T14:53:05;1.38;;;0.80;;
52650;SDS011;38537;47.226;39.702;2022-10-31T14:55:34;1.05;;;0.95;;
52650;SDS011;38537;47.226;39.702;2022-10-31T14:58:19;2.63;;;0.70;;
52650;SDS011;38537;47.226;39.702;2022-10-31T15:00:51;3.92;;;1.00;;
52650;SDS011;38537;47.226;39.702;2022-10-31T15:03:33;0.95;;;0.77;;
52650;SDS011;38537;47.226;39.702;2022-10-31T15:06:13;1.25;;;0.80;;
52650;SDS011;38537;47.226;39.702;2022-10-31T15:08:45;2.17;;;0.80;;
52650;SDS011;38537;47.226;39.702;2022-10-31T15:11:25;1.30;;;0.80;;
52650;SDS011;38537;47.226;39.702;2022-10-31T15:13:55;1.00;;;0.88;;
52650;SDS011;38537;47.226;39.702;2022-10-31T15:16:27;2.28;;;0.88;;
52650;SDS011;38537;47.226;39.702;2022-10-31T15:19:04;2.58;;;1.00;;
52650;SDS011;38537;47.226;39.702;2022-10-31T15:21:33;3.40;;;1.40;;
52650;SDS011;38537;47.226;39.702;2022-10-31T15:24:10;2.97;;;1.33;;
52650;SDS011;38537;47.226;39.702;2022-10-31T15:26:44;2.15;;;1.45;;
52650;SDS011;38537;47.226;39.702;2022-10-31T15:29:20;3.40;;;1.38;;
52650;SDS011;38537;47.226;39.702;2022-10-31T15:31:52;2.92;;;1.63;;
52650;SDS011;38537;47.226;39.702;2022-10-31T15:34:26;2.63;;;1.50;;
52650;SDS011;38537;47.226;39.702;2022-10-31T15:37:02;2.78;;;1.40;;
52650;SDS011;38537;47.226;39.702;2022-10-31T15:39:31;4.97;;;1.98;;
52650;SDS011;38537;47.226;39.702;2022-10-31T15:41:59;2.80;;;1.55;;
52650;SDS011;38537;47.226;39.702;2022-10-31T15:44:34;2.70;;;1.50;;
52650;SDS011;38537;47.226;39.702;2022-10-31T15:47:12;2.25;;;1.20;;
52650;SDS011;38537;47.226;39.702;2022-10-31T15:49:49;2.90;;;1.20;;
52650;SDS011;38537;47.226;39.702;2022-10-31T15:52:32;2.42;;;1.30;;
52650;SDS011;38537;47.226;39.702;2022-10-31T15:55:18;2.63;;;0.77;;
52650;SDS011;38537;47.226;39.702;2022-10-31T15:57:51;3.17;;;1.20;;
52650;SDS011;38537;47.226;39.702;2022-10-31T16:02:49;1.42;;;1.10;;
52650;SDS011;38537;47.226;39.702;2022-10-31T16:05:17;0.80;;;0.80;;
52650;SDS011;38537;47.226;39.702;2022-10-31T16:07:51;1.00;;;0.90;;
52650;SDS011;38537;47.226;39.702;2022-10-31T16:10:23;1.48;;;0.82;;
52650;SDS011;38537;47.226;39.702;2022-10-31T16:12:55;1.00;;;0.90;;
52650;SDS011;38537;47.226;39.702;2022-10-31T16:15:23;2.72;;;1.27;;
52650;SDS011;38537;47.226;39.702;2022-10-31T16:17:50;2.03;;;0.80;;
52650;SDS011;38537;47.226;39.702;2022-10-31T16:20:28;1.52;;;0.80;;
52650;SDS011;38537;47.226;39.702;2022-10-31T16:22:58;1.40;;;0.88;;
52650;SDS011;38537;47.226;39.702;2022-10-31T16:25:37;1.70;;;0.80;;
52650;SDS011;38537;47.226;39.702;2022-10-31T16:28:16;1.25;;;0.90;;
52650;SDS011;38537;47.226;39.702;2022-10-31T16:30:55;1.70;;;1.02;;
52650;SDS011;38537;47.226;39.702;2022-10-31T16:33:36;2.25;;;1.15;;
52650;SDS011;38537;47.226;39.702;2022-10-31T16:36:30;1.92;;;1.00;;
52650;SDS011;38537;47.226;39.702;2022-10-31T16:39:02;1.00;;;0.82;;
52650;SDS011;38537;47.226;39.702;2022-10-31T16:41:30;2.58;;;1.05;;
52650;SDS011;38537;47.226;39.702;2022-10-31T16:44:03;2.97;;;1.00;;
52650;SDS011;38537;47.226;39.702;2022-10-31T16:46:33;1.45;;;1.13;;
52650;SDS011;38537;47.226;39.702;2022-10-31T16:49:00;2.35;;;1.15;;
52650;SDS011;38537;47.226;39.702;2022-10-31T16:51:28;1.98;;;1.25;;
52650;SDS011;38537;47.226;39.702;2022-10-31T16:53:56;2.47;;;1.20;;
52650;SDS011;38537;47.226;39.702;2022-10-31T16:56:27;2.65;;;1.40;;
52650;SDS011;38537;47.226;39.702;2022-10-31T16:59:00;4.28;;;1.60;;
52650;SDS011;38537;47.226;39.702;2022-10-31T17:01:29;2.92;;;1.38;;
52650;SDS011;38537;47.226;39.702;2022-10-31T17:03:58;1.80;;;1.20;;
52650;SDS011;38537;47.226;39.702;2022-10-31T17:06:26;3.13;;;1.60;;
52650;SDS011;38537;47.226;39.702;2022-10-31T17:08:54;1.88;;;1.50;;
52650;SDS011;38537;47.226;39.702;2022-10-31T17:11:22;2.53;;;1.70;;
52650;SDS011;38537;47.226;39.702;2022-10-31T17:13:52;2.42;;;1.65;;
52650;SDS011;38537;47.226;39.702;2022-10-31T17:16:21;3.55;;;1.70;;
52650;SDS011;38537;47.226;39.702;2022-10-31T17:18:49;2.70;;;1.98;;
52650;SDS011;38537;47.226;39.702;2022-10-31T17:21:18;4.28;;;2.13;;
52650;SDS011;38537;47.226;39.702;2022-10-31T17:23:49;6.05;;;1.83;;
52650;SDS011;38537;47.226;39.702;2022-10-31T17:26:17;2.33;;;1.70;;